Carbon Hill, Alabama
Current Conditions -  °F | °C
As of 10:35 AM on Tuesday 21 Oct 2014 (Local Time) from KJFX Reporting Station
Clear Clear  
Wind Chill: 70°   Ceiling: Unl
Heat Index: 70°   Visibility: 10mi
Dew Point: 55°   Wind: 3mph
Humidity: 60%   Direction: 280°W
Pressure: 30.08"   Gusts: NA
Location:  33.89°N, 87.53°W
Report Text: KJFX 211535Z AUTO 28003KT 10SM CLR 21/13 A3008 RMK A02 P-128
Loading
Personal Weather Stations






























Interactive Weather Map
Tropical Storm Tracking
New forecast layout! Learn more

10-Day Weather Forecast

Advertisements
Track Severe Weather on mobile